createdAt,value
2023-12-23T00:00:05.439Z,6.80
2023-12-23T00:02:35.603Z,6.80
2023-12-23T00:05:02.451Z,6.80
2023-12-23T00:07:29.250Z,6.90
2023-12-23T00:09:56.024Z,6.88
2023-12-23T00:12:22.910Z,6.77
2023-12-23T00:14:49.584Z,6.60
2023-12-23T00:17:16.484Z,6.51
2023-12-23T00:19:44.758Z,6.48
2023-12-23T00:22:11.706Z,6.50
2023-12-23T00:24:38.481Z,6.66
2023-12-23T00:27:05.578Z,6.63
2023-12-23T00:29:33.080Z,6.75
2023-12-23T00:31:59.828Z,6.75
2023-12-23T00:34:26.509Z,6.82
2023-12-23T00:36:54.619Z,6.88
2023-12-23T00:39:22.662Z,6.94
2023-12-23T00:41:49.377Z,6.79
2023-12-23T00:44:16.193Z,6.86
2023-12-23T00:46:42.976Z,6.80
2023-12-23T00:49:09.819Z,6.72
2023-12-23T00:51:37.610Z,6.67
2023-12-23T00:54:05.814Z,6.59
2023-12-23T00:56:32.576Z,6.58
2023-12-23T00:58:59.376Z,6.56
2023-12-23T01:01:26.169Z,6.58
2023-12-23T01:03:52.902Z,6.60
2023-12-23T01:06:19.813Z,6.56
2023-12-23T01:08:46.508Z,6.51
2023-12-23T01:11:14.688Z,6.52
2023-12-23T01:13:41.670Z,6.55
2023-12-23T01:16:08.852Z,6.64
2023-12-23T01:18:35.557Z,6.58
2023-12-23T01:21:02.332Z,6.52
2023-12-23T01:23:29.093Z,6.46
2023-12-23T01:25:55.843Z,6.47
2023-12-23T01:28:23.977Z,6.42
2023-12-23T01:30:50.771Z,6.42
2023-12-23T01:33:17.585Z,6.42
2023-12-23T01:35:45.179Z,6.36
2023-12-23T01:38:11.940Z,6.35
2023-12-23T01:40:39.042Z,6.27
2023-12-23T01:43:05.807Z,6.27
2023-12-23T01:45:36.194Z,6.19
2023-12-23T01:48:04.792Z,6.15
2023-12-23T01:50:31.617Z,6.17
2023-12-23T01:53:00.071Z,6.14
2023-12-23T01:55:28.667Z,6.11
2023-12-23T01:57:55.744Z,6.17
2023-12-23T02:00:22.594Z,6.17
2023-12-23T02:02:51.347Z,6.17
2023-12-23T02:05:18.563Z,6.15
2023-12-23T02:07:45.574Z,6.13
2023-12-23T02:10:13.107Z,6.15
2023-12-23T02:12:48.439Z,6.15
2023-12-23T02:15:16.703Z,6.19
2023-12-23T02:17:43.750Z,6.22
2023-12-23T02:20:12.267Z,6.20
2023-12-23T02:22:40.455Z,6.19
2023-12-23T02:25:08.103Z,6.16
2023-12-23T02:27:40.844Z,6.20
2023-12-23T02:30:10.057Z,6.19
2023-12-23T02:32:37.106Z,6.18
2023-12-23T02:35:04.911Z,6.13
2023-12-23T02:37:31.598Z,6.19
2023-12-23T02:39:59.689Z,6.19
2023-12-23T02:42:26.467Z,6.19
2023-12-23T02:44:53.223Z,6.18
2023-12-23T02:47:19.933Z,6.17
2023-12-23T02:49:46.709Z,6.22
2023-12-23T02:52:13.379Z,6.28
2023-12-23T02:54:40.289Z,6.31
2023-12-23T02:57:08.727Z,6.40
2023-12-23T02:59:35.468Z,6.43
2023-12-23T03:02:02.217Z,6.45
2023-12-23T03:04:28.939Z,6.54
2023-12-23T03:06:55.695Z,6.63
2023-12-23T03:09:22.427Z,6.71
2023-12-23T03:11:49.227Z,6.88
2023-12-23T03:14:17.349Z,7.13
2023-12-23T03:16:44.279Z,7.32
2023-12-23T03:19:11.153Z,7.56
2023-12-23T03:21:42.967Z,7.82
2023-12-23T03:24:09.683Z,7.90
2023-12-23T03:26:36.531Z,7.95
2023-12-23T03:29:03.288Z,8.07
2023-12-23T03:31:31.391Z,8.08
2023-12-23T03:33:58.128Z,8.12
2023-12-23T03:36:24.869Z,8.16
2023-12-23T03:38:51.641Z,8.16
2023-12-23T03:41:18.340Z,8.16
2023-12-23T03:43:45.637Z,8.19
2023-12-23T03:46:12.418Z,8.17
2023-12-23T03:48:40.512Z,8.22
2023-12-23T03:51:08.256Z,8.22
2023-12-23T03:53:35.031Z,8.21
2023-12-23T03:56:01.870Z,8.22
2023-12-23T03:58:28.807Z,8.25
2023-12-23T04:00:55.763Z,8.27
2023-12-23T04:03:22.562Z,8.31
2023-12-23T04:05:51.516Z,8.38
2023-12-23T04:08:18.364Z,8.35
2023-12-23T04:10:45.090Z,8.38
2023-12-23T04:13:12.504Z,8.39
2023-12-23T04:15:40.070Z,8.48
2023-12-23T04:18:07.607Z,8.52
2023-12-23T04:20:34.439Z,8.52
2023-12-23T04:23:02.542Z,8.53
2023-12-23T04:25:29.274Z,8.57
2023-12-23T04:27:56.019Z,8.58
2023-12-23T04:30:22.955Z,8.55
2023-12-23T04:32:49.843Z,8.55
2023-12-23T04:35:17.413Z,8.56
2023-12-23T04:37:44.891Z,8.50
2023-12-23T04:40:13.694Z,8.55
2023-12-23T04:42:40.771Z,8.58
2023-12-23T04:45:09.680Z,8.61
2023-12-23T04:47:38.145Z,8.58
2023-12-23T04:50:06.349Z,8.55
2023-12-23T04:52:33.899Z,8.61
2023-12-23T04:55:00.737Z,8.61
2023-12-23T04:57:29.079Z,8.63
2023-12-23T04:59:55.900Z,8.72
2023-12-23T05:02:22.699Z,8.80
2023-12-23T05:04:49.672Z,8.85
2023-12-23T05:07:16.415Z,8.96
2023-12-23T05:09:43.200Z,8.98
2023-12-23T05:12:10.109Z,8.98
2023-12-23T05:14:38.222Z,9.05
2023-12-23T05:17:05.316Z,9.01
2023-12-23T05:19:31.980Z,9.12
2023-12-23T05:21:58.682Z,9.13
2023-12-23T05:24:25.385Z,9.17
2023-12-23T05:26:52.204Z,9.24
2023-12-23T05:29:19.002Z,9.23
2023-12-23T05:31:47.759Z,9.29
2023-12-23T05:34:14.583Z,9.27
2023-12-23T05:36:41.468Z,9.24
2023-12-23T05:39:08.148Z,9.24
2023-12-23T05:41:34.843Z,9.16
2023-12-23T05:44:01.543Z,9.17
2023-12-23T05:46:28.344Z,9.12
2023-12-23T05:48:56.497Z,9.11
2023-12-23T05:51:23.349Z,9.10
2023-12-23T05:53:50.094Z,9.08
2023-12-23T05:56:16.793Z,9.08
2023-12-23T05:58:43.918Z,9.08
2023-12-23T06:01:10.775Z,9.16
2023-12-23T06:03:37.584Z,9.19
2023-12-23T06:06:06.090Z,9.26
2023-12-23T06:08:32.827Z,9.28
2023-12-23T06:11:00.392Z,9.23
2023-12-23T06:13:28.115Z,9.36
2023-12-23T06:15:54.854Z,9.42
2023-12-23T06:18:21.778Z,9.37
2023-12-23T06:20:48.562Z,9.37
2023-12-23T06:23:16.710Z,9.44
2023-12-23T06:25:43.501Z,9.50
2023-12-23T06:28:10.262Z,9.53
2023-12-23T06:30:37.048Z,9.51
2023-12-23T06:33:04.209Z,9.49
2023-12-23T06:35:31.030Z,9.55
2023-12-23T06:37:57.817Z,9.61
2023-12-23T06:40:25.924Z,9.59
2023-12-23T06:42:52.948Z,9.63
2023-12-23T06:45:19.789Z,9.64
2023-12-23T06:47:46.567Z,9.64
2023-12-23T06:50:13.492Z,9.65
2023-12-23T06:52:40.418Z,9.69
2023-12-23T06:55:07.766Z,9.67
2023-12-23T06:57:37.768Z,9.67
2023-12-23T07:00:06.624Z,9.72
2023-12-23T07:02:33.347Z,9.74
2023-12-23T07:05:00.234Z,9.73
2023-12-23T07:07:27.190Z,9.86
2023-12-23T07:10:01.842Z,9.79
2023-12-23T07:12:32.057Z,9.79
2023-12-23T07:15:00.600Z,9.79
2023-12-23T07:17:38.093Z,9.77
2023-12-23T07:20:09.807Z,9.79
2023-12-23T07:22:36.582Z,9.82
2023-12-23T07:25:03.676Z,9.75
2023-12-23T07:27:30.479Z,9.76
2023-12-23T07:29:57.302Z,9.76
2023-12-23T07:32:25.582Z,9.80
2023-12-23T07:34:52.506Z,9.79
2023-12-23T07:37:19.272Z,9.82
2023-12-23T07:39:46.041Z,9.89
2023-12-23T07:42:12.837Z,9.91
2023-12-23T07:44:39.652Z,9.92
2023-12-23T07:47:06.912Z,10.05
2023-12-23T07:49:38.227Z,10.04
2023-12-23T07:52:06.609Z,10.05
2023-12-23T07:54:33.370Z,9.97
2023-12-23T07:57:00.138Z,10.08
2023-12-23T07:59:27.071Z,10.11
2023-12-23T08:01:53.822Z,10.12
2023-12-23T08:04:20.575Z,10.20
2023-12-23T08:06:48.681Z,10.23
2023-12-23T08:09:15.357Z,10.18
2023-12-23T08:11:42.127Z,10.13
2023-12-23T08:14:08.855Z,9.99
2023-12-23T08:16:35.578Z,10.05
2023-12-23T08:19:02.388Z,10.02
2023-12-23T08:21:29.132Z,10.02
2023-12-23T08:23:57.189Z,10.03
2023-12-23T08:26:24.787Z,10.05
2023-12-23T08:28:51.632Z,10.02
2023-12-23T08:31:18.399Z,9.99
2023-12-23T08:33:45.213Z,9.94
2023-12-23T08:36:11.951Z,9.88
2023-12-23T08:38:39.332Z,9.95
2023-12-23T08:41:08.237Z,9.99
2023-12-23T08:43:34.960Z,9.94
2023-12-23T08:46:01.658Z,9.95
2023-12-23T08:48:28.368Z,9.94
2023-12-23T08:50:55.139Z,9.98
2023-12-23T08:53:21.886Z,10.01
2023-12-23T08:55:48.623Z,9.97
2023-12-23T08:58:16.686Z,9.98
2023-12-23T09:00:43.494Z,9.98
2023-12-23T09:03:10.343Z,10.06
2023-12-23T09:05:37.300Z,10.07
2023-12-23T09:08:04.700Z,10.07
2023-12-23T09:10:31.409Z,10.15
2023-12-23T09:12:58.080Z,10.06
2023-12-23T09:15:26.555Z,10.11
2023-12-23T09:17:53.614Z,10.17
2023-12-23T09:20:20.623Z,10.22
2023-12-23T09:22:49.676Z,10.20
2023-12-23T09:25:16.535Z,10.23
2023-12-23T09:27:43.282Z,10.19
2023-12-23T09:30:10.943Z,10.16
2023-12-23T09:32:39.063Z,10.15
2023-12-23T09:35:06.667Z,10.22
2023-12-23T09:37:33.617Z,10.16
2023-12-23T09:40:00.524Z,10.13
2023-12-23T09:42:28.737Z,10.14
2023-12-23T09:44:55.784Z,10.06
2023-12-23T09:47:22.816Z,10.01
2023-12-23T09:49:51.269Z,10.09
2023-12-23T09:52:18.102Z,10.04
2023-12-23T09:54:48.873Z,9.96
2023-12-23T09:57:16.556Z,9.99
2023-12-23T09:59:43.283Z,9.99
2023-12-23T10:02:10.102Z,9.96
2023-12-23T10:04:36.813Z,10.01
2023-12-23T10:07:04.942Z,9.97
2023-12-23T10:09:31.774Z,10.02
2023-12-23T10:11:58.592Z,10.04
2023-12-23T10:14:25.401Z,10.02
2023-12-23T10:16:52.141Z,10.09
2023-12-23T10:19:18.898Z,10.11
2023-12-23T10:21:45.658Z,10.16
2023-12-23T10:24:13.791Z,10.23
2023-12-23T10:26:42.330Z,10.25
2023-12-23T10:29:10.713Z,10.27
2023-12-23T10:31:38.053Z,10.27
2023-12-23T10:34:09.737Z,10.34
2023-12-23T10:36:38.083Z,10.36
2023-12-23T10:39:10.678Z,10.34
2023-12-23T10:41:47.344Z,10.31
2023-12-23T10:44:17.318Z,10.36
2023-12-23T10:46:45.715Z,10.34
2023-12-23T10:49:13.923Z,10.33
2023-12-23T10:51:40.836Z,10.37
2023-12-23T10:54:08.735Z,10.41
2023-12-23T10:56:36.684Z,10.45
2023-12-23T10:59:05.811Z,10.42
2023-12-23T11:01:33.518Z,10.48
2023-12-23T11:04:02.359Z,10.48
2023-12-23T11:06:32.290Z,10.49
2023-12-23T11:09:01.425Z,10.52
2023-12-23T11:11:30.745Z,10.51
2023-12-23T11:13:57.717Z,10.58
2023-12-23T11:16:25.743Z,10.53
2023-12-23T11:18:52.952Z,10.56
2023-12-23T11:21:19.944Z,10.63
2023-12-23T11:23:47.171Z,10.71
2023-12-23T11:26:40.164Z,10.66
2023-12-23T11:29:07.442Z,10.68
2023-12-23T11:31:35.669Z,10.68
2023-12-23T11:34:12.427Z,10.75
2023-12-23T11:36:39.193Z,10.65
2023-12-23T11:39:06.694Z,10.62
2023-12-23T11:41:36.501Z,10.61
2023-12-23T11:44:03.838Z,10.60
2023-12-23T11:46:32.143Z,10.57
2023-12-23T11:49:01.177Z,10.57
2023-12-23T11:51:27.988Z,10.57
2023-12-23T11:53:57.168Z,10.54
2023-12-23T11:56:25.828Z,10.50
2023-12-23T11:58:52.624Z,10.53
2023-12-23T12:01:19.485Z,10.64
2023-12-23T12:03:48.151Z,10.71
2023-12-23T12:06:16.397Z,10.67
2023-12-23T12:08:43.305Z,10.61
2023-12-23T12:11:10.130Z,10.60
2023-12-23T12:13:37.057Z,10.54
2023-12-23T12:16:04.722Z,10.62
2023-12-23T12:18:31.433Z,10.55
2023-12-23T12:20:58.653Z,10.52
2023-12-23T12:23:27.050Z,10.52
2023-12-23T12:25:53.801Z,10.48
2023-12-23T12:28:20.749Z,10.50
2023-12-23T12:30:48.476Z,10.44
2023-12-23T12:33:16.033Z,10.41
2023-12-23T12:35:42.771Z,10.48
2023-12-23T12:38:16.631Z,10.53
2023-12-23T12:40:48.410Z,10.49
2023-12-23T12:43:15.108Z,10.47
2023-12-23T12:45:42.935Z,10.49
2023-12-23T12:48:10.793Z,10.41
2023-12-23T12:50:39.248Z,10.47
2023-12-23T12:53:06.032Z,10.40
2023-12-23T12:55:32.720Z,10.48
2023-12-23T12:58:00.871Z,10.48
2023-12-23T13:00:27.671Z,10.52
2023-12-23T13:02:54.701Z,10.52
2023-12-23T13:05:21.762Z,10.57
2023-12-23T13:07:48.596Z,10.64
2023-12-23T13:10:15.392Z,10.56
2023-12-23T13:12:42.029Z,10.64
2023-12-23T13:15:11.148Z,10.54
2023-12-23T13:17:37.973Z,10.46
2023-12-23T13:20:05.773Z,10.48
2023-12-23T13:22:32.542Z,10.44
2023-12-23T13:24:59.310Z,10.36
2023-12-23T13:27:26.008Z,10.33
2023-12-23T13:29:52.708Z,10.32
2023-12-23T13:32:20.787Z,10.35
2023-12-23T13:34:47.596Z,10.25
2023-12-23T13:37:14.464Z,10.23
2023-12-23T13:39:41.193Z,10.28
2023-12-23T13:42:07.893Z,10.29
2023-12-23T13:44:34.657Z,10.32
2023-12-23T13:47:01.644Z,10.28
2023-12-23T13:49:29.981Z,10.30
2023-12-23T13:51:56.760Z,10.38
2023-12-23T13:54:23.457Z,10.40
2023-12-23T13:56:50.382Z,10.38
2023-12-23T13:59:17.151Z,10.37
2023-12-23T14:01:43.895Z,10.39
2023-12-23T14:04:10.668Z,10.38
2023-12-23T14:06:38.842Z,10.44
2023-12-23T14:09:05.986Z,10.38
2023-12-23T14:11:32.886Z,10.40
2023-12-23T14:13:59.999Z,10.36
2023-12-23T14:16:26.777Z,10.26
2023-12-23T14:18:53.706Z,10.36
2023-12-23T14:21:20.446Z,10.38
2023-12-23T14:23:48.537Z,10.32
2023-12-23T14:26:15.327Z,10.24
2023-12-23T14:28:42.205Z,10.25
2023-12-23T14:31:09.729Z,10.24
2023-12-23T14:33:37.506Z,10.23
2023-12-23T14:36:05.935Z,10.27
2023-12-23T14:38:32.703Z,10.27
2023-12-23T14:41:00.945Z,10.30
2023-12-23T14:43:27.700Z,10.26
2023-12-23T14:45:54.445Z,10.23
2023-12-23T14:48:21.178Z,10.20
2023-12-23T14:50:47.897Z,10.22
2023-12-23T14:53:14.831Z,10.17
2023-12-23T14:55:42.055Z,10.14
2023-12-23T14:58:11.197Z,10.09
2023-12-23T15:00:38.039Z,10.10
2023-12-23T15:03:05.053Z,10.10
2023-12-23T15:05:31.968Z,10.04
2023-12-23T15:07:58.848Z,10.01
2023-12-23T15:10:25.646Z,9.99
2023-12-23T15:12:52.574Z,10.01
2023-12-23T15:15:20.943Z,9.93
2023-12-23T15:17:47.783Z,9.94
2023-12-23T15:20:14.740Z,9.93
2023-12-23T15:22:41.543Z,9.94
2023-12-23T15:25:08.550Z,9.98
2023-12-23T15:27:35.249Z,9.94
2023-12-23T15:30:01.961Z,9.93
2023-12-23T15:32:30.232Z,9.88
2023-12-23T15:34:57.093Z,9.96
2023-12-23T15:37:23.756Z,9.94
2023-12-23T15:39:50.441Z,9.94
2023-12-23T15:42:17.124Z,9.91
2023-12-23T15:44:43.886Z,9.89
2023-12-23T15:47:10.640Z,9.82
2023-12-23T15:49:38.696Z,9.79
2023-12-23T15:52:06.243Z,9.75
2023-12-23T15:54:32.933Z,9.77
2023-12-23T15:56:59.591Z,9.76
2023-12-23T15:59:26.336Z,9.79
2023-12-23T16:01:53.184Z,9.75
2023-12-23T16:04:19.915Z,9.81
2023-12-23T16:06:47.984Z,9.77
2023-12-23T16:09:14.726Z,9.69
2023-12-23T16:11:41.548Z,9.63
2023-12-23T16:14:08.376Z,9.64
2023-12-23T16:16:35.125Z,9.66
2023-12-23T16:19:01.998Z,9.59
2023-12-23T16:21:28.874Z,9.57
2023-12-23T16:23:56.882Z,9.54
2023-12-23T16:26:23.651Z,9.55
2023-12-23T16:28:50.460Z,9.58
2023-12-23T16:31:17.446Z,9.60
2023-12-23T16:33:44.267Z,9.57
2023-12-23T16:36:11.451Z,9.53
2023-12-23T16:38:38.194Z,9.47
2023-12-23T16:41:06.640Z,9.41
2023-12-23T16:43:33.385Z,9.42
2023-12-23T16:46:00.051Z,9.39
2023-12-23T16:48:26.839Z,9.38
2023-12-23T16:50:53.558Z,9.39
2023-12-23T16:53:20.301Z,9.40
2023-12-23T16:55:47.130Z,9.34
2023-12-23T16:58:15.332Z,9.36
2023-12-23T17:00:42.147Z,9.40
2023-12-23T17:03:08.959Z,9.43
2023-12-23T17:05:35.801Z,9.49
2023-12-23T17:08:02.672Z,9.50
2023-12-23T17:10:29.379Z,9.56
2023-12-23T17:12:56.140Z,9.63
2023-12-23T17:15:24.216Z,9.72
2023-12-23T17:17:51.069Z,9.74
2023-12-23T17:20:17.963Z,9.77
2023-12-23T17:22:44.776Z,9.80
2023-12-23T17:25:11.587Z,9.80
2023-12-23T17:27:38.424Z,9.83
2023-12-23T17:30:06.772Z,9.84
2023-12-23T17:32:34.953Z,9.92
2023-12-23T17:35:01.855Z,9.90
2023-12-23T17:37:28.580Z,9.86
2023-12-23T17:39:55.188Z,9.83
2023-12-23T17:42:22.010Z,9.77
2023-12-23T17:44:48.696Z,9.76
2023-12-23T17:47:15.541Z,9.72
2023-12-23T17:49:43.725Z,9.69
2023-12-23T17:52:10.564Z,9.65
2023-12-23T17:54:37.401Z,9.62
2023-12-23T17:57:04.546Z,9.65
2023-12-23T17:59:31.281Z,9.67
2023-12-23T18:01:58.053Z,9.69
2023-12-23T18:04:24.742Z,9.71
2023-12-23T18:06:52.788Z,9.74
2023-12-23T18:09:19.536Z,9.73
2023-12-23T18:11:46.301Z,9.75
2023-12-23T18:14:13.110Z,9.77
2023-12-23T18:16:39.859Z,9.78
2023-12-23T18:19:06.536Z,9.77
2023-12-23T18:21:33.250Z,9.75
2023-12-23T18:24:01.325Z,9.78
2023-12-23T18:26:28.028Z,9.80
2023-12-23T18:28:54.827Z,9.79
2023-12-23T18:31:21.537Z,9.80
2023-12-23T18:33:48.406Z,9.83
2023-12-23T18:36:15.150Z,9.78
2023-12-23T18:38:41.980Z,9.79
2023-12-23T18:41:10.073Z,9.82
2023-12-23T18:43:36.795Z,9.79
2023-12-23T18:46:03.874Z,9.79
2023-12-23T18:48:30.660Z,9.80
2023-12-23T18:50:57.317Z,9.80
2023-12-23T18:53:23.982Z,9.85
2023-12-23T18:55:50.715Z,9.83
2023-12-23T18:58:18.785Z,9.81
2023-12-23T19:00:45.515Z,9.90
2023-12-23T19:03:12.286Z,9.91
2023-12-23T19:05:39.443Z,9.90
2023-12-23T19:08:07.096Z,9.95
2023-12-23T19:10:33.850Z,9.99
2023-12-23T19:13:00.506Z,9.94
2023-12-23T19:15:28.663Z,9.96
2023-12-23T19:17:55.865Z,9.99
2023-12-23T19:20:22.783Z,9.97
2023-12-23T19:22:49.750Z,9.97
2023-12-23T19:25:16.600Z,9.98
2023-12-23T19:27:43.279Z,9.98
2023-12-23T19:30:10.808Z,9.97
2023-12-23T19:32:39.077Z,9.99
2023-12-23T19:35:06.312Z,10.02
2023-12-23T19:37:33.081Z,10.03
2023-12-23T19:40:06.746Z,10.04
2023-12-23T19:42:36.742Z,10.08
2023-12-23T19:45:03.942Z,10.06
2023-12-23T19:47:31.657Z,10.03
2023-12-23T19:49:59.993Z,10.00
2023-12-23T19:52:26.743Z,10.01
2023-12-23T19:54:53.634Z,10.04
2023-12-23T19:57:20.394Z,10.04
2023-12-23T19:59:47.245Z,10.08
2023-12-23T20:02:14.017Z,10.06
2023-12-23T20:04:40.755Z,10.06
2023-12-23T20:07:08.870Z,10.04
2023-12-23T20:09:37.310Z,10.06
2023-12-23T20:12:04.568Z,10.01
2023-12-23T20:14:31.376Z,10.04
2023-12-23T20:16:58.193Z,10.05
2023-12-23T20:19:24.932Z,10.04
2023-12-23T20:21:51.699Z,10.02
2023-12-23T20:24:19.803Z,9.96
2023-12-23T20:26:46.537Z,10.02
2023-12-23T20:29:13.542Z,10.02
2023-12-23T20:31:40.403Z,9.97
2023-12-23T20:34:07.136Z,10.01
2023-12-23T20:36:38.250Z,10.03
2023-12-23T20:39:05.037Z,9.99
2023-12-23T20:41:33.127Z,10.02
2023-12-23T20:43:59.899Z,9.96
2023-12-23T20:46:26.618Z,9.97
2023-12-23T20:48:53.492Z,9.99
2023-12-23T20:51:20.599Z,9.93
2023-12-23T20:53:47.307Z,9.95
2023-12-23T20:56:20.051Z,9.95
2023-12-23T20:58:48.283Z,9.93
2023-12-23T21:01:15.087Z,9.95
2023-12-23T21:03:41.927Z,9.95
2023-12-23T21:06:08.835Z,9.96
2023-12-23T21:08:35.632Z,9.94
2023-12-23T21:11:02.410Z,9.94
2023-12-23T21:13:29.191Z,10.03
2023-12-23T21:15:57.233Z,9.97
2023-12-23T21:18:24.013Z,9.87
2023-12-23T21:20:50.747Z,9.86
2023-12-23T21:23:17.512Z,9.84
2023-12-23T21:25:45.200Z,9.84
2023-12-23T21:28:11.992Z,9.89
2023-12-23T21:30:38.776Z,9.83
2023-12-23T21:33:06.957Z,9.86
2023-12-23T21:35:34.927Z,9.88
2023-12-23T21:38:01.913Z,9.83
2023-12-23T21:40:28.701Z,9.81
2023-12-23T21:42:55.374Z,9.80
2023-12-23T21:45:22.131Z,9.86
2023-12-23T21:47:49.366Z,9.84
2023-12-23T21:50:17.826Z,9.85
2023-12-23T21:52:44.546Z,9.81
2023-12-23T21:55:11.356Z,9.79
2023-12-23T21:57:38.095Z,9.78
2023-12-23T22:00:06.009Z,9.78
2023-12-23T22:02:35.800Z,9.78
2023-12-23T22:05:03.672Z,9.79
2023-12-23T22:07:31.779Z,9.80
2023-12-23T22:09:58.567Z,9.80
2023-12-23T22:12:25.198Z,9.76
2023-12-23T22:14:51.853Z,9.80
2023-12-23T22:17:18.692Z,9.79
2023-12-23T22:19:45.387Z,9.80
2023-12-23T22:22:12.127Z,9.84
2023-12-23T22:24:40.275Z,9.82
2023-12-23T22:27:07.011Z,9.81
2023-12-23T22:29:33.793Z,9.79
2023-12-23T22:32:00.643Z,9.81
2023-12-23T22:34:27.449Z,9.80
2023-12-23T22:36:54.155Z,9.80
2023-12-23T22:39:20.872Z,9.74
2023-12-23T22:41:49.210Z,9.75
2023-12-23T22:44:15.944Z,9.76
2023-12-23T22:46:42.850Z,9.77
2023-12-23T22:49:09.651Z,9.74
2023-12-23T22:51:36.434Z,9.71
2023-12-23T22:54:05.088Z,9.66
2023-12-23T22:56:38.026Z,9.63
2023-12-23T22:59:06.228Z,9.66
2023-12-23T23:01:33.166Z,9.50
2023-12-23T23:03:59.898Z,9.53
2023-12-23T23:06:26.804Z,9.46
2023-12-23T23:08:53.732Z,9.48
2023-12-23T23:11:20.675Z,9.42
2023-12-23T23:13:47.452Z,9.50
2023-12-23T23:16:15.547Z,9.53
2023-12-23T23:18:42.479Z,9.65
2023-12-23T23:21:09.395Z,9.69
2023-12-23T23:23:36.074Z,9.69
2023-12-23T23:26:02.809Z,9.61
2023-12-23T23:28:29.457Z,9.57
2023-12-23T23:30:56.162Z,9.53
2023-12-23T23:33:24.328Z,9.45
2023-12-23T23:35:51.188Z,9.31
2023-12-23T23:38:18.004Z,9.24
2023-12-23T23:40:44.729Z,9.22
2023-12-23T23:43:11.563Z,9.30
2023-12-23T23:45:38.299Z,9.27
2023-12-23T23:48:05.642Z,9.28
2023-12-23T23:50:33.758Z,9.29
2023-12-23T23:53:02.015Z,9.33
2023-12-23T23:55:28.718Z,9.30
2023-12-23T23:57:55.417Z,9.31
